createdAt,value
2022-11-17T00:02:47.550Z,99403.53
2022-11-17T00:05:45.260Z,99396.28
2022-11-17T00:08:42.101Z,99388.34
2022-11-17T00:11:57.645Z,99373.56
2022-11-17T00:14:56.545Z,99373.09
2022-11-17T00:18:15.688Z,99373.97
2022-11-17T00:21:23.741Z,99361.69
2022-11-17T00:24:23.733Z,99353.38
2022-11-17T00:27:21.471Z,99351.94
2022-11-17T00:30:36.780Z,99336.03
2022-11-17T00:34:01.547Z,99331.19
2022-11-17T00:36:58.257Z,99333.16
2022-11-17T00:40:00.556Z,99319.09
2022-11-17T00:42:58.585Z,99322.53
2022-11-17T00:45:55.224Z,99307.72
2022-11-17T00:48:52.365Z,99302.63
2022-11-17T00:51:49.626Z,99300.00
2022-11-17T00:54:46.223Z,99286.47
2022-11-17T00:57:43.476Z,99285.13
2022-11-17T01:00:40.473Z,99275.25
2022-11-17T01:03:37.872Z,99280.78
2022-11-17T01:06:40.152Z,99276.72
2022-11-17T01:09:37.254Z,99269.72
2022-11-17T01:12:34.261Z,99258.81
2022-11-17T01:15:31.373Z,99247.97
2022-11-17T01:18:28.493Z,99250.22
2022-11-17T01:21:25.908Z,99234.94
2022-11-17T01:24:23.597Z,99229.78
2022-11-17T01:27:20.089Z,99243.66
2022-11-17T01:30:18.269Z,99227.50
2022-11-17T01:33:15.278Z,99211.50
2022-11-17T01:36:20.642Z,99222.69
2022-11-17T01:39:17.312Z,99207.75
2022-11-17T01:42:16.075Z,99208.06
2022-11-17T01:45:16.429Z,99200.63
2022-11-17T01:48:13.462Z,99194.31
2022-11-17T01:51:11.388Z,99202.59
2022-11-17T01:54:08.224Z,99190.63
2022-11-17T01:57:07.761Z,99186.66
2022-11-17T02:00:07.514Z,99189.06
2022-11-17T02:03:07.505Z,99174.31
2022-11-17T02:06:33.374Z,99155.72
2022-11-17T02:09:30.111Z,99160.44
2022-11-17T02:12:27.201Z,99160.13
2022-11-17T02:15:24.370Z,99153.72
2022-11-17T02:18:20.997Z,99147.28
2022-11-17T02:21:20.903Z,99132.44
2022-11-17T02:24:21.063Z,99135.84
2022-11-17T02:27:27.091Z,99128.13
2022-11-17T02:30:24.233Z,99124.81
2022-11-17T02:33:55.879Z,99119.63
2022-11-17T02:37:13.528Z,99128.88
2022-11-17T02:40:14.791Z,99112.72
2022-11-17T02:43:38.638Z,99108.59
2022-11-17T02:46:48.066Z,99108.91
2022-11-17T02:49:48.024Z,99108.47
2022-11-17T02:52:45.316Z,99105.28
2022-11-17T02:55:51.896Z,99095.06
2022-11-17T02:58:51.007Z,99099.53
2022-11-17T03:02:10.778Z,99094.94
2022-11-17T03:05:15.797Z,99084.09
2022-11-17T03:08:33.177Z,99084.09
2022-11-17T03:11:45.004Z,99072.38
2022-11-17T03:15:04.865Z,99076.31
2022-11-17T03:18:44.447Z,99082.69
2022-11-17T03:21:44.783Z,99081.16
2022-11-17T03:24:44.426Z,99078.03
2022-11-17T03:27:45.224Z,99081.53
2022-11-17T03:30:43.393Z,99077.41
2022-11-17T03:33:40.701Z,99071.75
2022-11-17T03:36:38.727Z,99082.56
2022-11-17T03:39:44.110Z,99075.31
2022-11-17T03:42:43.186Z,99075.19
2022-11-17T03:45:46.855Z,99076.63
2022-11-17T03:49:09.602Z,99070.56
2022-11-17T03:52:07.173Z,99065.47
2022-11-17T03:55:04.238Z,99069.75
2022-11-17T03:58:05.238Z,99067.00
2022-11-17T04:01:02.817Z,99070.19
2022-11-17T04:04:00.360Z,99052.50
2022-11-17T04:06:57.550Z,99058.13
2022-11-17T04:09:54.369Z,99053.16
2022-11-17T04:13:10.008Z,99050.69
2022-11-17T04:16:07.886Z,99039.84
2022-11-17T04:19:05.803Z,99041.94
2022-11-17T04:22:03.433Z,99034.66
2022-11-17T04:25:00.139Z,99044.56
2022-11-17T04:28:16.306Z,99017.72
2022-11-17T04:31:16.719Z,99025.56
2022-11-17T04:34:13.780Z,99013.16
2022-11-17T04:37:17.555Z,99014.19
2022-11-17T04:40:14.792Z,99019.53
2022-11-17T04:43:12.156Z,99000.19
2022-11-17T04:46:09.743Z,98993.22
2022-11-17T04:49:06.684Z,98999.63
2022-11-17T04:52:03.653Z,98991.91
2022-11-17T04:55:00.285Z,98996.78
2022-11-17T04:57:57.341Z,98997.28
2022-11-17T05:00:54.626Z,98992.47
2022-11-17T05:03:53.076Z,98986.72
2022-11-17T05:06:50.300Z,98980.91
2022-11-17T05:09:47.319Z,98984.97
2022-11-17T05:13:03.292Z,98988.66
2022-11-17T05:16:18.966Z,98974.06
2022-11-17T05:19:21.441Z,98977.94
2022-11-17T05:22:40.124Z,98972.81
2022-11-17T05:25:37.356Z,98961.97
2022-11-17T05:28:34.597Z,98960.81
2022-11-17T05:31:31.740Z,98959.94
2022-11-17T05:34:28.610Z,98941.75
2022-11-17T05:37:25.797Z,98951.72
2022-11-17T05:40:22.483Z,98946.88
2022-11-17T05:43:19.410Z,98938.84
2022-11-17T05:46:19.949Z,98930.91
2022-11-17T05:49:17.672Z,98923.25
2022-11-17T05:52:14.445Z,98923.13
2022-11-17T05:55:11.620Z,98904.38
2022-11-17T05:58:17.084Z,98896.75
2022-11-17T06:01:14.524Z,98899.63
2022-11-17T06:04:13.006Z,98875.34
2022-11-17T06:07:10.327Z,98873.25
2022-11-17T06:10:07.264Z,98876.75
2022-11-17T06:13:04.370Z,98860.91
2022-11-17T06:16:03.497Z,98856.94
2022-11-17T06:19:03.949Z,98850.47
2022-11-17T06:22:16.848Z,98837.81
2022-11-17T06:25:14.266Z,98843.13
2022-11-17T06:28:14.021Z,98848.78
2022-11-17T06:31:11.584Z,98851.00
2022-11-17T06:34:08.602Z,98844.34
2022-11-17T06:37:05.638Z,98819.50
2022-11-17T06:40:02.636Z,98830.53
2022-11-17T06:43:09.403Z,98815.84
2022-11-17T06:46:06.522Z,98826.38
2022-11-17T06:49:09.955Z,98832.66
2022-11-17T06:52:07.577Z,98843.56
2022-11-17T06:55:04.863Z,98849.16
2022-11-17T06:58:06.640Z,98842.31
2022-11-17T07:01:08.022Z,98839.44
2022-11-17T07:04:05.429Z,98848.28
2022-11-17T07:07:02.820Z,98860.44
2022-11-17T07:10:00.542Z,98835.59
2022-11-17T07:12:57.780Z,98849.03
2022-11-17T07:15:54.495Z,98837.00
2022-11-17T07:18:52.580Z,98851.78
2022-11-17T07:21:49.861Z,98850.78
2022-11-17T07:24:47.784Z,98844.19
2022-11-17T07:27:44.536Z,98842.81
2022-11-17T07:30:41.525Z,98832.41
2022-11-17T07:33:38.708Z,98841.59
2022-11-17T07:36:35.530Z,98845.97
2022-11-17T07:39:32.442Z,98858.94
2022-11-17T07:42:29.443Z,98850.78
2022-11-17T07:45:31.847Z,98850.78
2022-11-17T07:48:29.449Z,98856.81
2022-11-17T07:51:26.535Z,98859.44
2022-11-17T07:54:23.427Z,98849.09
2022-11-17T07:57:21.501Z,98849.81
2022-11-17T08:00:18.568Z,98861.03
2022-11-17T08:03:15.695Z,98836.50
2022-11-17T08:06:12.957Z,98838.94
2022-11-17T08:09:13.460Z,98836.94
2022-11-17T08:12:10.499Z,98834.91
2022-11-17T08:15:08.146Z,98840.69
2022-11-17T08:18:06.291Z,98835.09
2022-11-17T08:21:11.401Z,98853.94
2022-11-17T08:24:09.377Z,98835.81
2022-11-17T08:27:06.648Z,98828.72
2022-11-17T08:30:04.270Z,98832.34
2022-11-17T08:33:01.849Z,98837.38
2022-11-17T08:35:59.172Z,98844.22
2022-11-17T08:38:56.806Z,98854.00
2022-11-17T08:41:55.162Z,98849.63
2022-11-17T08:44:52.789Z,98830.22
2022-11-17T08:47:49.823Z,98839.69
2022-11-17T08:50:46.771Z,98834.22
2022-11-17T08:53:43.872Z,98833.31
2022-11-17T08:56:40.706Z,98848.16
2022-11-17T08:59:37.467Z,98846.91
2022-11-17T09:02:34.317Z,98835.66
2022-11-17T09:05:31.540Z,98830.66
2022-11-17T09:08:56.294Z,98839.06
2022-11-17T09:11:45.775Z,98835.16
2022-11-17T09:14:42.812Z,98835.09
2022-11-17T09:17:40.393Z,98838.94
2022-11-17T09:20:42.756Z,98833.97
2022-11-17T09:23:42.750Z,98832.47
2022-11-17T09:26:43.071Z,98840.81
2022-11-17T09:29:40.749Z,98839.75
2022-11-17T09:32:37.642Z,98852.22
2022-11-17T09:35:34.817Z,98849.03
2022-11-17T09:38:31.827Z,98845.78
2022-11-17T09:41:36.220Z,98855.56
2022-11-17T09:44:40.377Z,98846.34
2022-11-17T09:47:41.581Z,98853.88
2022-11-17T09:50:41.744Z,98844.66
2022-11-17T09:53:49.785Z,98850.38
2022-11-17T09:56:46.829Z,98860.53
2022-11-17T09:59:43.946Z,98851.31
2022-11-17T10:02:44.148Z,98855.88
2022-11-17T10:05:41.768Z,98851.84
2022-11-17T10:08:51.717Z,98853.25
2022-11-17T10:11:49.078Z,98858.22
2022-11-17T10:14:48.805Z,98848.25
2022-11-17T10:17:45.815Z,98847.66
2022-11-17T10:20:43.249Z,98853.56
2022-11-17T10:23:47.124Z,98855.28
2022-11-17T10:26:48.262Z,98841.72
2022-11-17T10:30:19.216Z,98863.09
2022-11-17T10:33:18.179Z,98862.34
2022-11-17T10:36:23.798Z,98857.97
2022-11-17T10:39:35.923Z,98861.66
2022-11-17T10:42:32.847Z,98860.19
2022-11-17T10:45:30.050Z,98854.66
2022-11-17T10:48:38.181Z,98876.41
2022-11-17T10:51:35.901Z,98874.78
2022-11-17T10:54:32.804Z,98873.38
2022-11-17T10:57:29.765Z,98867.38
2022-11-17T11:00:31.550Z,98874.66
2022-11-17T11:03:30.705Z,98866.94
2022-11-17T11:06:34.242Z,98877.00
2022-11-17T11:09:31.431Z,98872.56
2022-11-17T11:12:36.257Z,98876.13
2022-11-17T11:15:35.110Z,98881.28
2022-11-17T11:18:33.892Z,98872.94
2022-11-17T11:21:45.158Z,98882.53
2022-11-17T11:24:56.107Z,98880.16
2022-11-17T11:28:31.614Z,98898.28
2022-11-17T11:31:40.463Z,98883.88
2022-11-17T11:34:37.291Z,98893.06
2022-11-17T11:37:39.109Z,98893.84
2022-11-17T11:40:38.664Z,98912.47
2022-11-17T11:43:45.664Z,98921.88
2022-11-17T11:46:51.607Z,98926.88
2022-11-17T11:50:00.324Z,98918.28
2022-11-17T11:53:07.714Z,98912.81
2022-11-17T11:56:09.701Z,98906.50
2022-11-17T11:59:14.935Z,98909.56
2022-11-17T12:02:11.624Z,98906.44
2022-11-17T12:05:30.360Z,98922.31
2022-11-17T12:08:38.300Z,98919.19
2022-11-17T12:11:54.479Z,98914.78
2022-11-17T12:15:12.085Z,98900.00
2022-11-17T12:18:18.469Z,98914.47
2022-11-17T12:21:23.253Z,98904.38
2022-11-17T12:24:36.282Z,98911.22
2022-11-17T12:27:33.840Z,98912.47
2022-11-17T12:30:30.847Z,98909.75
2022-11-17T12:33:53.640Z,98906.63
2022-11-17T12:37:15.095Z,98909.75
2022-11-17T12:40:44.025Z,98909.31
2022-11-17T12:43:40.646Z,98919.69
2022-11-17T12:46:37.789Z,98938.31
2022-11-17T12:49:40.008Z,98920.00
2022-11-17T12:52:59.228Z,98928.66
2022-11-17T12:56:02.480Z,98931.88
2022-11-17T12:59:26.768Z,98934.78
2022-11-17T13:02:54.567Z,98935.34
2022-11-17T13:06:38.839Z,98948.16
2022-11-17T13:09:30.444Z,98938.50
2022-11-17T13:12:32.475Z,98944.34
2022-11-17T13:15:30.175Z,98946.13
2022-11-17T13:18:33.085Z,98945.50
2022-11-17T13:21:31.146Z,98949.06
2022-11-17T13:24:36.493Z,98955.88
2022-11-17T13:27:33.858Z,98966.59
2022-11-17T13:30:31.523Z,98965.94
2022-11-17T13:33:29.659Z,98965.31
2022-11-17T13:36:27.332Z,98977.13
2022-11-17T13:39:27.895Z,98966.78
2022-11-17T13:42:27.499Z,98977.44
2022-11-17T13:45:24.861Z,98964.97
2022-11-17T13:48:44.826Z,98960.28
2022-11-17T13:51:42.275Z,98968.22
2022-11-17T13:54:43.687Z,98961.34
2022-11-17T13:57:40.825Z,98969.38
2022-11-17T14:00:37.922Z,98961.00
2022-11-17T14:03:35.728Z,98955.78
2022-11-17T14:07:00.707Z,98959.75
2022-11-17T14:10:19.736Z,98974.16
2022-11-17T14:13:22.848Z,98983.78
2022-11-17T14:16:24.990Z,98977.47
2022-11-17T14:19:34.339Z,98980.06
2022-11-17T14:22:32.113Z,98976.06
2022-11-17T14:25:29.605Z,98982.75
2022-11-17T14:28:27.382Z,98979.94
2022-11-17T14:31:24.572Z,98974.78
2022-11-17T14:34:22.036Z,98981.84
2022-11-17T14:37:19.597Z,98986.25
2022-11-17T14:40:17.960Z,98984.00
2022-11-17T14:43:14.811Z,98989.78
2022-11-17T14:46:25.536Z,98997.50
2022-11-17T14:49:23.139Z,98994.56
2022-11-17T14:52:19.737Z,98997.88
2022-11-17T14:55:17.202Z,99006.16
2022-11-17T14:58:15.214Z,99008.47
2022-11-17T15:01:24.494Z,99014.91
2022-11-17T15:04:48.817Z,99020.56
2022-11-17T15:07:39.012Z,99015.59
2022-11-17T15:10:35.944Z,99017.72
2022-11-17T15:13:33.130Z,99023.38
2022-11-17T15:16:29.966Z,99023.19
2022-11-17T15:19:26.934Z,99034.72
2022-11-17T15:22:25.397Z,99041.16
2022-11-17T15:25:22.889Z,99033.16
2022-11-17T15:28:23.015Z,99028.94
2022-11-17T15:31:21.024Z,99040.91
2022-11-17T15:34:20.446Z,99032.50
2022-11-17T15:37:17.920Z,99039.41
2022-11-17T15:40:19.198Z,99040.53
2022-11-17T15:43:16.534Z,99037.72
2022-11-17T15:46:18.183Z,99047.94
2022-11-17T15:49:15.594Z,99054.38
2022-11-17T15:52:13.240Z,99059.91
2022-11-17T15:55:11.171Z,99064.97
2022-11-17T15:58:08.130Z,99062.03
2022-11-17T16:01:13.089Z,99073.94
2022-11-17T16:04:11.534Z,99072.63
2022-11-17T16:07:08.894Z,99081.75
2022-11-17T16:10:06.186Z,99083.53
2022-11-17T16:13:03.249Z,99081.16
2022-11-17T16:16:00.157Z,99087.84
2022-11-17T16:18:57.221Z,99090.59
2022-11-17T16:21:54.127Z,99091.69
2022-11-17T16:24:50.946Z,99089.47
2022-11-17T16:27:47.926Z,99085.53
2022-11-17T16:30:45.302Z,99094.44
2022-11-17T16:33:53.340Z,99096.63
2022-11-17T16:36:50.817Z,99098.63
2022-11-17T16:39:47.772Z,99092.06
2022-11-17T16:42:45.728Z,99105.13
2022-11-17T16:45:45.959Z,99103.06
2022-11-17T16:48:42.736Z,99102.19
2022-11-17T16:51:40.247Z,99099.34
2022-11-17T16:54:37.475Z,99103.09
2022-11-17T16:57:35.127Z,99095.13
2022-11-17T17:00:32.410Z,99104.19
2022-11-17T17:03:29.983Z,99100.75
2022-11-17T17:06:27.194Z,99111.59
2022-11-17T17:09:27.846Z,99114.09
2022-11-17T17:12:24.878Z,99111.59
2022-11-17T17:15:21.857Z,99119.34
2022-11-17T17:18:19.982Z,99115.47
2022-11-17T17:21:18.386Z,99126.78
2022-11-17T17:24:16.061Z,99121.97
2022-11-17T17:27:13.387Z,99118.97
2022-11-17T17:30:11.806Z,99117.25
2022-11-17T17:33:09.029Z,99122.88
2022-11-17T17:36:06.710Z,99131.09
2022-11-17T17:39:04.567Z,99129.19
2022-11-17T17:42:02.047Z,99129.69
2022-11-17T17:44:59.016Z,99136.38
2022-11-17T17:47:56.036Z,99141.53
2022-11-17T17:50:54.044Z,99148.25
2022-11-17T17:53:55.902Z,99150.97
2022-11-17T17:56:52.911Z,99153.03
2022-11-17T17:59:50.024Z,99154.13
2022-11-17T18:02:48.140Z,99155.63
2022-11-17T18:05:46.292Z,99150.00
2022-11-17T18:08:44.517Z,99157.50
2022-11-17T18:11:46.076Z,99165.38
2022-11-17T18:14:43.717Z,99162.44
2022-11-17T18:17:40.877Z,99164.63
2022-11-17T18:20:37.778Z,99166.19
2022-11-17T18:23:35.508Z,99178.72
2022-11-17T18:26:34.220Z,99176.53
2022-11-17T18:29:31.194Z,99176.09
2022-11-17T18:32:28.217Z,99183.47
2022-11-17T18:35:24.947Z,99191.47
2022-11-17T18:38:22.051Z,99187.22
2022-11-17T18:41:19.290Z,99187.88
2022-11-17T18:44:17.125Z,99192.28
2022-11-17T18:47:14.200Z,99198.03
2022-11-17T18:50:11.186Z,99195.13
2022-11-17T18:53:07.993Z,99201.41
2022-11-17T18:56:08.001Z,99202.28
2022-11-17T18:59:11.287Z,99202.88
2022-11-17T19:02:09.036Z,99206.69
2022-11-17T19:05:06.637Z,99214.72
2022-11-17T19:08:04.433Z,99213.81
2022-11-17T19:11:06.039Z,99222.88
2022-11-17T19:14:05.353Z,99215.16
2022-11-17T19:17:02.787Z,99218.59
2022-11-17T19:20:00.235Z,99219.41
2022-11-17T19:22:57.126Z,99222.28
2022-11-17T19:25:54.394Z,99216.47
2022-11-17T19:28:54.320Z,99209.22
2022-11-17T19:31:52.691Z,99213.59
2022-11-17T19:34:51.009Z,99210.72
2022-11-17T19:37:48.961Z,99215.00
2022-11-17T19:40:46.075Z,99226.38
2022-11-17T19:43:45.505Z,99239.97
2022-11-17T19:46:43.328Z,99244.41
2022-11-17T19:49:40.314Z,99248.03
2022-11-17T19:52:37.144Z,99246.63
2022-11-17T19:55:34.835Z,99244.72
2022-11-17T19:58:31.936Z,99251.72
2022-11-17T20:01:29.561Z,99248.69
2022-11-17T20:04:26.978Z,99250.25
2022-11-17T20:07:24.439Z,99248.22
2022-11-17T20:10:22.053Z,99239.38
2022-11-17T20:13:19.377Z,99248.63
2022-11-17T20:16:19.052Z,99254.75
2022-11-17T20:19:16.322Z,99251.41
2022-11-17T20:22:17.492Z,99255.78
2022-11-17T20:25:15.359Z,99266.09
2022-11-17T20:28:12.138Z,99261.94
2022-11-17T20:31:14.400Z,99264.03
2022-11-17T20:34:12.195Z,99277.44
2022-11-17T20:37:09.693Z,99285.03
2022-11-17T20:40:07.749Z,99282.00
2022-11-17T20:43:04.949Z,99280.63
2022-11-17T20:46:02.653Z,99291.84
2022-11-17T20:49:00.231Z,99299.81
2022-11-17T20:51:57.255Z,99307.22
2022-11-17T20:54:54.334Z,99299.22
2022-11-17T20:57:51.209Z,99294.44
2022-11-17T21:00:48.490Z,99298.94
2022-11-17T21:03:46.130Z,99299.66
2022-11-17T21:06:43.300Z,99303.88
2022-11-17T21:09:40.241Z,99304.63
2022-11-17T21:12:37.211Z,99310.66
2022-11-17T21:15:34.338Z,99310.59
2022-11-17T21:18:31.036Z,99314.16
2022-11-17T21:21:28.035Z,99331.66
2022-11-17T21:24:25.975Z,99322.84
2022-11-17T21:27:23.063Z,99326.09
2022-11-17T21:30:20.429Z,99332.19
2022-11-17T21:33:17.083Z,99336.16
2022-11-17T21:36:17.542Z,99336.88
2022-11-17T21:39:18.680Z,99337.78
2022-11-17T21:42:16.305Z,99352.53
2022-11-17T21:45:13.324Z,99346.88
2022-11-17T21:48:10.043Z,99352.97
2022-11-17T21:51:08.513Z,99347.00
2022-11-17T21:54:06.944Z,99348.19
2022-11-17T21:57:04.287Z,99356.03
2022-11-17T22:00:01.262Z,99361.78
2022-11-17T22:02:58.138Z,99360.75
2022-11-17T22:06:00.935Z,99368.25
2022-11-17T22:08:59.037Z,99369.06
2022-11-17T22:11:56.374Z,99374.84
2022-11-17T22:14:53.489Z,99363.22
2022-11-17T22:17:50.136Z,99370.06
2022-11-17T22:20:51.505Z,99372.47
2022-11-17T22:23:48.408Z,99370.94
2022-11-17T22:26:45.551Z,99369.38
2022-11-17T22:29:43.450Z,99380.69
2022-11-17T22:32:45.159Z,99386.91
2022-11-17T22:35:42.456Z,99387.28
2022-11-17T22:38:39.125Z,99392.13
2022-11-17T22:41:36.120Z,99401.00
2022-11-17T22:44:33.150Z,99395.06
2022-11-17T22:47:30.127Z,99398.25
2022-11-17T22:50:27.040Z,99400.69
2022-11-17T22:53:24.409Z,99416.56
2022-11-17T22:56:21.235Z,99426.84
2022-11-17T22:59:18.791Z,99413.81
2022-11-17T23:02:16.078Z,99427.03
2022-11-17T23:05:13.210Z,99422.78
2022-11-17T23:08:10.346Z,99428.75
2022-11-17T23:11:35.344Z,99433.78
2022-11-17T23:14:25.389Z,99424.94
2022-11-17T23:17:22.136Z,99432.78
2022-11-17T23:20:19.046Z,99442.09
2022-11-17T23:23:16.757Z,99436.91
2022-11-17T23:26:14.025Z,99447.47
2022-11-17T23:29:11.206Z,99436.06
2022-11-17T23:32:08.653Z,99434.69
2022-11-17T23:35:06.752Z,99439.41
2022-11-17T23:38:04.117Z,99438.84
2022-11-17T23:41:02.480Z,99439.56
2022-11-17T23:43:59.690Z,99460.50
2022-11-17T23:46:57.376Z,99454.38
2022-11-17T23:49:54.324Z,99456.16
2022-11-17T23:52:51.347Z,99463.78
2022-11-17T23:55:57.429Z,99466.59
2022-11-17T23:58:54.149Z,99475.47
